Weather History for Waskish, MN

Change the Weather History Date:

Monday, November 12, 2012

  Actual Average (KBDE) Record (KBDE)
Temperature  
Mean Temperature 22 °F -  
Max Temperature 24 °F 34 °F 59 °F (1981)
Min Temperature 19 °F 17 °F -11 °F (1966)
Degree Days  
Heating Degree Days 44    
Moisture  
Dew Point 18 °F    
Average Humidity 88    
Maximum Humidity 93    
Minimum Humidity 80    
Precipitation  
Precipitation 0.00 in - - ()
Sea Level Pressure  
Sea Level Pressure 29.90 in    
Wind  
Wind Speed 15 mph (West)    
Max Wind Speed 21 mph    
Max Gust Speed 26 mph    
Visibility 9 miles    
Events Snow    
Averages and records for this station are not official NWS values.
T = Trace of Precipitation, MM = Missing Value Source: NWS Daily Summary

Daily Weather History Graph

Daily Weather History Graph

Search for Another Location

Airport:

Trip Planner

Search our weather history database for the weather conditions in past years. The results will help you decide how hot, cold, wet, or windy it might be!

Date:

Astronomy

Nov. 12, 2012 Rise Set
Actual Time 7:21 AM CST 4:42 PM CST
Civil Twilight 6:47 AM CST 5:16 PM CST
Nautical Twilight 6:09 AM CST 5:54 PM CST
Astronomical Twilight 5:33 AM CST 6:30 PM CST
Moon 5:43 AM CST (11/12) 3:50 PM CST (11/12)
Length of Visible Light 10h 29m
Length of Day
9h 21m
Waning Crescent, 2% of the Moon is Illuminated
Nov 12
Waning Crescent
Nov 13
New
Nov 20
First Quarter
Nov 28
Full
Dec 6
Last Quarter

Hourly Weather History & Observations

Time (CST) Temp. Windchill Dew Point Humidity Pressure Visibility Wind Dir Wind Speed Gust Speed Precip Events Conditions
12:10 AM 19.4 °F 6.6 °F 15.8 °F 86% 29.72 in 3.0 mi SW 12.7 mph 19.6 mph N/A Snow Light Snow
12:30 AM 21.2 °F 7.3 °F 15.8 °F 80% 29.72 in 4.0 mi WSW 16.1 mph 20.7 mph N/A Snow Light Snow
12:50 AM 19.4 °F 5.5 °F 15.8 °F 86% 29.72 in 10.0 mi WSW 15.0 mph 21.9 mph N/A Snow Light Snow
1:11 AM 19.4 °F 6.6 °F 15.8 °F 86% 29.71 in 10.0 mi WSW 12.7 mph 19.6 mph N/A Snow Light Snow
1:30 AM 19.4 °F 5.0 °F 15.8 °F 86% 29.71 in 10.0 mi WSW 16.1 mph 21.9 mph N/A   Overcast
1:50 AM 19.4 °F 4.5 °F 15.8 °F 86% 29.71 in 10.0 mi WSW 17.3 mph 23.0 mph N/A   Overcast
2:11 AM 19.4 °F 6.6 °F 15.8 °F 86% 29.72 in 10.0 mi WSW 12.7 mph 19.6 mph N/A Snow Light Snow
2:30 AM 19.4 °F 6.0 °F 15.8 °F 86% 29.72 in 10.0 mi WSW 13.8 mph 19.6 mph N/A Snow Light Snow
2:50 AM 19.4 °F 5.5 °F 15.8 °F 86% 29.72 in 10.0 mi WSW 15.0 mph 19.6 mph N/A   Overcast
3:11 AM 19.4 °F 6.0 °F 15.8 °F 86% 29.73 in 10.0 mi WSW 13.8 mph - N/A Snow Light Snow
3:50 AM 19.4 °F 5.5 °F 15.8 °F 86% 29.73 in 10.0 mi WSW 15.0 mph - N/A Snow Light Snow
4:11 AM 19.4 °F 6.0 °F 15.8 °F 86% 29.73 in 10.0 mi WSW 13.8 mph 21.9 mph N/A   Overcast
4:30 AM 19.4 °F 6.0 °F 15.8 °F 86% 29.74 in 5.0 mi WSW 13.8 mph 20.7 mph N/A Snow Light Snow
4:50 AM 19.4 °F 6.6 °F 15.8 °F 86% 29.74 in 7.0 mi WSW 12.7 mph 19.6 mph N/A Snow Light Snow
5:11 AM 19.4 °F 5.5 °F 15.8 °F 86% 29.74 in 7.0 mi WSW 15.0 mph 24.2 mph N/A Snow Light Snow
5:30 AM 19.4 °F 6.0 °F 15.8 °F 86% 29.74 in 7.0 mi WSW 13.8 mph 20.7 mph N/A Snow Light Snow
5:50 AM 19.4 °F 5.5 °F 15.8 °F 86% 29.74 in 10.0 mi WSW 15.0 mph 21.9 mph N/A Snow Light Snow
6:10 AM 19.4 °F 5.5 °F 15.8 °F 86% 29.75 in 10.0 mi WSW 15.0 mph 21.9 mph N/A Snow Light Snow
6:30 AM 19.4 °F 5.0 °F 15.8 °F 86% 29.75 in 5.0 mi West 16.1 mph 23.0 mph N/A Snow Light Snow
6:51 AM 19.4 °F 5.0 °F 15.8 °F 86% 29.76 in 4.0 mi West 16.1 mph 24.2 mph N/A Snow Light Snow
7:10 AM 19.4 °F 5.0 °F 15.8 °F 86% 29.76 in 7.0 mi West 16.1 mph 24.2 mph N/A Snow Light Snow
7:30 AM 19.4 °F 5.5 °F 17.6 °F 93% 29.77 in 7.0 mi West 15.0 mph 21.9 mph N/A Snow Light Snow
7:51 AM 19.4 °F 5.5 °F 17.6 °F 93% 29.78 in 7.0 mi West 15.0 mph 24.2 mph N/A Snow Light Snow
8:10 AM 19.4 °F 5.0 °F 17.6 °F 93% 29.78 in 5.0 mi West 16.1 mph 25.3 mph N/A Snow Light Snow
8:30 AM 21.2 °F 6.8 °F 17.6 °F 86% 29.79 in 5.0 mi West 17.3 mph 26.5 mph N/A Snow Light Snow
8:51 AM 21.2 °F 6.8 °F 17.6 °F 86% 29.79 in 5.0 mi West 17.3 mph 24.2 mph N/A Snow Light Snow
9:10 AM 21.2 °F 6.8 °F 17.6 °F 86% 29.80 in 7.0 mi West 17.3 mph 24.2 mph N/A Snow Light Snow
9:30 AM 21.2 °F 6.4 °F 17.6 °F 86% 29.81 in 5.0 mi West 18.4 mph 24.2 mph N/A Snow Light Snow
9:51 AM 21.2 °F 8.3 °F 17.6 °F 86% 29.81 in 5.0 mi West 13.8 mph 24.2 mph N/A Snow Light Snow
10:10 AM 21.2 °F 7.3 °F 17.6 °F 86% 29.82 in 7.0 mi West 16.1 mph 25.3 mph N/A Snow Light Snow
10:30 AM 21.2 °F 6.8 °F 17.6 °F 86% 29.83 in 7.0 mi West 17.3 mph 26.5 mph N/A Snow Light Snow
10:51 AM 21.2 °F 6.8 °F 19.4 °F 93% 29.84 in 4.0 mi West 17.3 mph 25.3 mph N/A Snow Light Snow
11:10 AM 23.0 °F 8.7 °F 19.4 °F 86% 29.84 in 10.0 mi West 18.4 mph 26.5 mph N/A Snow Light Snow
11:30 AM 23.0 °F 9.6 °F 19.4 °F 86% 29.85 in 10.0 mi West 16.1 mph 25.3 mph N/A Snow Light Snow
11:50 AM 24.8 °F 12.4 °F 19.4 °F 80% 29.86 in 10.0 mi West 15.0 mph 23.0 mph N/A Snow Light Snow
12:10 PM 24.8 °F 11.5 °F 19.4 °F 80% 29.87 in 10.0 mi West 17.3 mph 24.2 mph N/A Snow Light Snow
12:30 PM 24.8 °F 11.9 °F 19.4 °F 80% 29.87 in 10.0 mi West 16.1 mph 21.9 mph N/A   Overcast
12:51 PM 24.8 °F 11.5 °F 19.4 °F 80% 29.88 in 10.0 mi West 17.3 mph 25.3 mph N/A   Overcast
1:10 PM 24.8 °F 12.4 °F 19.4 °F 80% 29.89 in 10.0 mi West 15.0 mph 24.2 mph N/A Snow Light Snow
1:30 PM 24.8 °F 11.5 °F 21.2 °F 86% 29.90 in 10.0 mi West 17.3 mph 23.0 mph N/A   Overcast
1:50 PM 24.8 °F 11.9 °F 21.2 °F 86% 29.91 in 10.0 mi West 16.1 mph 25.3 mph N/A   Overcast
2:10 PM 24.8 °F 10.7 °F 21.2 °F 86% 29.93 in 10.0 mi West 19.6 mph 26.5 mph N/A   Overcast
2:30 PM 24.8 °F 10.3 °F 21.2 °F 86% 29.93 in 10.0 mi West 20.7 mph 26.5 mph N/A   Overcast
2:50 PM 24.8 °F 12.4 °F 19.4 °F 80% 29.94 in 10.0 mi West 15.0 mph 25.3 mph N/A   Overcast
3:10 PM 24.8 °F 11.1 °F 19.4 °F 80% 29.96 in 10.0 mi West 18.4 mph 25.3 mph N/A   Overcast
3:30 PM 24.8 °F 11.9 °F 19.4 °F 80% 29.97 in 10.0 mi West 16.1 mph 23.0 mph N/A   Overcast
3:50 PM 23.0 °F 10.1 °F 19.4 °F 86% 29.98 in 10.0 mi West 15.0 mph 21.9 mph N/A   Overcast
4:31 PM 23.0 °F 10.6 °F 19.4 °F 86% 30.01 in 10.0 mi WNW 13.8 mph 19.6 mph N/A   Overcast
4:50 PM 23.0 °F 11.1 °F 19.4 °F 86% 30.02 in 10.0 mi West 12.7 mph 20.7 mph N/A   Overcast
5:10 PM 23.0 °F 10.6 °F 19.4 °F 86% 30.03 in 10.0 mi West 13.8 mph 21.9 mph N/A   Overcast
5:31 PM 21.2 °F 7.3 °F 19.4 °F 93% 30.04 in 10.0 mi West 16.1 mph 21.9 mph N/A   Overcast
5:50 PM 21.2 °F 7.3 °F 19.4 °F 93% 30.06 in 10.0 mi WNW 16.1 mph 21.9 mph N/A   Overcast
6:10 PM 21.2 °F 8.9 °F 19.4 °F 93% 30.06 in 10.0 mi West 12.7 mph 23.0 mph N/A   Overcast
6:31 PM 21.2 °F 8.9 °F 19.4 °F 93% 30.07 in 10.0 mi West 12.7 mph 17.3 mph N/A   Overcast
6:50 PM 21.2 °F 9.5 °F 19.4 °F 93% 30.08 in 10.0 mi West 11.5 mph 17.3 mph N/A   Overcast
7:31 PM 21.2 °F 8.3 °F 19.4 °F 93% 30.10 in 10.0 mi West 13.8 mph - N/A   Overcast
7:50 PM 21.2 °F 9.5 °F 19.4 °F 93% 30.10 in 10.0 mi West 11.5 mph 16.1 mph N/A   Overcast
8:10 PM 19.4 °F 7.9 °F 17.6 °F 93% 30.10 in 10.0 mi West 10.4 mph - N/A   Overcast
8:31 PM 19.4 °F 9.5 °F 17.6 °F 93% 30.11 in 10.0 mi West 8.1 mph - N/A   Overcast
8:50 PM 19.4 °F 8.6 °F 17.6 °F 93% 30.12 in 10.0 mi WSW 9.2 mph - N/A   Overcast
9:10 PM 19.4 °F 7.9 °F 17.6 °F 93% 30.12 in 10.0 mi West 10.4 mph - N/A   Overcast
9:31 PM 19.4 °F 7.2 °F 17.6 °F 93% 30.12 in 10.0 mi WSW 11.5 mph 17.3 mph N/A   Overcast
9:50 PM 19.4 °F 7.2 °F 17.6 °F 93% 30.13 in 10.0 mi West 11.5 mph - N/A   Overcast
10:10 PM 21.2 °F 10.9 °F 19.4 °F 93% 30.13 in 10.0 mi SW 9.2 mph 16.1 mph N/A   Overcast
10:31 PM 21.2 °F 11.7 °F 19.4 °F 93% 30.12 in 10.0 mi West 8.1 mph - N/A   Overcast
10:50 PM 21.2 °F 10.9 °F 19.4 °F 93% 30.13 in 10.0 mi SW 9.2 mph - N/A   Overcast
11:10 PM 21.2 °F 9.5 °F 19.4 °F 93% 30.13 in 10.0 mi WSW 11.5 mph 16.1 mph N/A   Overcast
11:31 PM 21.2 °F 9.5 °F 19.4 °F 93% 30.14 in 10.0 mi SW 11.5 mph - N/A   Overcast
11:50 PM 21.2 °F 10.1 °F 19.4 °F 93% 30.14 in 10.0 mi WSW 10.4 mph 16.1 mph N/A   Overcast